Ennis, Ireland
Current Conditions -  °F | °C
As of 6:30 PM on Thursday 23 Oct 2014 (Local Time) from EINN Reporting Station
Broken Clouds Broken Clouds  
Wind Chill: 12°   Ceiling: 1800
Heat Index: 12°   Visibility: 6mi
Dew Point: 11°   Wind: 13mph
Humidity: 94%   Direction: 240°WSW
Pressure: 29.88"   Gusts: NA
Location:  52.86°N, 8.99°W
Report Text: EINN 231830Z 24011KT 9999 FEW005 SCT010 BKN018 12/11 Q1012 NOSIG
Loading
Personal Weather Stations






























Interactive Weather Map
Tropical Storm Tracking
New forecast layout! Learn more

10-Day Weather Forecast

Advertisements
Track Severe Weather on mobile